CheckWX is a tool to help pilots better visualize weather data.  It is not intended as a substitute for an official pre-flight weather briefing.

21:05:26 UTC

CYGP METAR
Gaspé (Michel-Pouliot) Airport
Gaspé, Canada
Current

1 hour ago

CYGP 232000Z 32011G17KT 15SM FEW040 M06/M18 A3020 RMK CF1 CF TR SLP230
Observed
Feb-23 @ 20:00 UTC
Wind
  • 320° at 11 KTS
  • Gusting to 17 KTS
Visibility
15 SM
Flight Rules
VFR
Cloud Levels
  • Few at 4,000' AGL
Temperature
-6°C / 21°F
Dewpoint
-18°C / -0°F
Humidity
38%
Altimeter
30.2" Hg
Pressure
1023 hPa
Previous

2 hours ago

CYGP 231900Z 31012G17KT 15SM FEW040 FEW180 M06/M18 A3019 RMK CF1AS1 CF TR AS TR SLP229
Observed
Feb-23 @ 19:00 UTC
Wind
  • 310° at 12 KTS
  • Gusting to 17 KTS
Visibility
15 SM
Flight Rules
VFR
Cloud Levels
  • Few at 4,000' AGL
  • Few at 18,000' AGL
Temperature
-6°C / 21°F
Dewpoint
-18°C / -0°F
Humidity
38%
Altimeter
30.19" Hg
Pressure
1022.9 hPa
Previous

3 hours ago

CYGP 231800Z 31014G21KT 15SM FEW040 FEW180 M06/M19 A3020 RMK CF1AS1 CF TR SLP230
Observed
Feb-23 @ 18:00 UTC
Wind
  • 310° at 14 KTS
  • Gusting to 21 KTS
Visibility
15 SM
Flight Rules
VFR
Cloud Levels
  • Few at 4,000' AGL
  • Few at 18,000' AGL
Temperature
-6°C / 21°F
Dewpoint
-19°C / -2°F
Humidity
35%
Altimeter
30.2" Hg
Pressure
1023 hPa